Venice, New York
Current Conditions -  °F | °C
As of 7:56 AM on Monday 22 Dec 2014 (Local Time) from KITH Reporting Station
Overcast Overcast  
Wind Chill: 23°   Ceiling: 1500
Heat Index: 30°   Visibility: 10mi
Dew Point: 25°   Wind: 7mph
Humidity: 82%   Direction: 180°S
Pressure: 30.26"   Gusts: NA
Location:  42.7818°N, 76.5651°W
Report Text: KITH 221256Z 18006KT 10SM OVC015 M01/M04 A3026 RMK AO2 T10111038 SLP263
Loading
Personal Weather Stations






























Interactive Weather Map New forecast layout! Learn more

10-Day Weather Forecast

Advertisements
Track Severe Weather on mobile